createdAt,value
2022-10-11T00:00:40.764Z,59.30
2022-10-11T00:01:40.778Z,54.62
2022-10-11T00:02:40.746Z,57.36
2022-10-11T00:03:40.756Z,59.14
2022-10-11T00:04:40.736Z,57.69
2022-10-11T00:05:40.720Z,59.78
2022-10-11T00:06:40.721Z,58.01
2022-10-11T00:07:40.721Z,58.97
2022-10-11T00:08:40.710Z,60.91
2022-10-11T00:09:40.697Z,62.20
2022-10-11T00:10:40.696Z,59.62
2022-10-11T00:11:40.684Z,57.36
2022-10-11T00:12:40.676Z,61.55
2022-10-11T00:13:40.692Z,56.72
2022-10-11T00:14:40.664Z,55.27
2022-10-11T00:15:40.657Z,60.10
2022-10-11T00:16:40.656Z,61.39
2022-10-11T00:17:40.647Z,61.55
2022-10-11T00:18:40.655Z,59.62
2022-10-11T00:19:40.631Z,59.30
2022-10-11T00:20:40.631Z,56.88
2022-10-11T00:21:40.615Z,54.95
2022-10-11T00:22:40.619Z,60.10
2022-10-11T00:23:40.610Z,59.62
2022-10-11T00:24:40.608Z,58.01
2022-10-11T00:25:40.595Z,63.33
2022-10-11T00:26:45.698Z,57.36
2022-10-11T00:27:42.584Z,57.52
2022-10-11T00:28:40.632Z,61.55
2022-10-11T00:29:40.573Z,62.20
2022-10-11T00:30:40.564Z,60.75
2022-10-11T00:31:40.551Z,61.23
2022-10-11T00:32:40.549Z,59.62
2022-10-11T00:33:40.542Z,59.94
2022-10-11T00:34:40.544Z,59.94
2022-10-11T00:35:40.534Z,56.72
2022-10-11T00:36:40.511Z,59.94
2022-10-11T00:37:40.527Z,57.36
2022-10-11T00:38:40.510Z,58.49
2022-10-11T00:39:40.497Z,56.56
2022-10-11T00:40:40.524Z,61.39
2022-10-11T00:41:40.488Z,59.14
2022-10-11T00:42:40.480Z,58.49
2022-10-11T00:43:40.465Z,56.07
2022-10-11T00:44:40.472Z,58.81
2022-10-11T00:45:40.478Z,55.59
2022-10-11T00:46:40.466Z,56.56
2022-10-11T00:47:40.445Z,51.24
2022-10-11T00:48:40.437Z,52.37
2022-10-11T00:49:40.428Z,60.75
2022-10-11T00:50:40.441Z,54.95
2022-10-11T00:51:40.428Z,55.91
2022-10-11T00:52:40.405Z,52.85
2022-10-11T00:53:40.405Z,59.30
2022-10-11T00:54:40.396Z,57.52
2022-10-11T00:55:40.400Z,48.98
2022-10-11T00:56:40.385Z,55.59
2022-10-11T00:57:40.381Z,58.49
2022-10-11T00:58:40.376Z,57.04
2022-10-11T00:59:40.357Z,53.66
2022-10-11T01:00:40.371Z,58.81
2022-10-11T01:01:40.401Z,59.14
2022-10-11T01:02:40.332Z,56.72
2022-10-11T01:03:40.334Z,55.43
2022-10-11T01:04:40.335Z,55.11
2022-10-11T01:05:40.364Z,57.52
2022-10-11T01:06:40.315Z,55.11
2022-10-11T01:07:40.309Z,61.23
2022-10-11T01:08:40.300Z,57.85
2022-10-11T01:09:40.294Z,57.52
2022-10-11T01:10:40.288Z,57.04
2022-10-11T01:11:40.316Z,60.26
2022-10-11T01:12:40.277Z,59.78
2022-10-11T01:13:40.264Z,58.01
2022-10-11T01:14:40.262Z,60.26
2022-10-11T01:15:40.249Z,57.04
2022-10-11T01:16:40.255Z,58.33
2022-10-11T01:17:40.244Z,58.33
2022-10-11T01:18:40.229Z,61.07
2022-10-11T01:19:40.229Z,56.72
2022-10-11T01:20:40.221Z,55.27
2022-10-11T01:21:40.245Z,55.11
2022-10-11T01:22:40.209Z,58.17
2022-10-11T01:23:40.197Z,53.66
2022-10-11T01:24:40.200Z,55.91
2022-10-11T01:25:40.180Z,57.52
2022-10-11T01:26:40.172Z,55.91
2022-10-11T01:27:40.194Z,60.10
2022-10-11T01:28:40.403Z,56.40
2022-10-11T01:29:40.176Z,58.01
2022-10-11T01:30:40.155Z,58.81
2022-10-11T01:31:40.144Z,59.62
2022-10-11T01:32:40.208Z,64.78
2022-10-11T01:33:40.136Z,61.07
2022-10-11T01:34:40.128Z,63.33
2022-10-11T01:35:40.134Z,64.29
2022-10-11T01:36:40.121Z,62.04
2022-10-11T01:37:40.105Z,59.62
2022-10-11T01:38:40.104Z,61.07
2022-10-11T01:39:40.088Z,61.07
2022-10-11T01:40:40.082Z,61.71
2022-10-11T01:41:40.132Z,56.40
2022-10-11T01:42:40.060Z,58.49
2022-10-11T01:43:40.112Z,58.01
2022-10-11T01:44:40.069Z,59.78
2022-10-11T01:45:40.056Z,59.14
2022-10-11T01:46:40.706Z,62.36
2022-10-11T01:47:40.027Z,61.71
2022-10-11T01:48:40.049Z,63.16
2022-10-11T01:49:40.018Z,60.59
2022-10-11T01:50:40.008Z,60.10
2022-10-11T01:51:42.027Z,58.97
2022-10-11T01:52:40.997Z,58.17
2022-10-11T01:53:39.991Z,55.75
2022-10-11T01:55:07.416Z,59.94
2022-10-11T01:55:41.972Z,58.81
2022-10-11T01:56:39.980Z,57.52
2022-10-11T01:57:39.960Z,57.52
2022-10-11T01:58:39.944Z,58.65
2022-10-11T01:59:39.954Z,59.94
2022-10-11T02:00:39.937Z,59.94
2022-10-11T02:01:40.007Z,58.97
2022-10-11T02:02:39.933Z,60.59
2022-10-11T02:03:39.925Z,56.40
2022-10-11T02:04:39.944Z,57.36
2022-10-11T02:05:39.896Z,58.01
2022-10-11T02:06:39.907Z,59.78
2022-10-11T02:07:39.895Z,60.42
2022-10-11T02:08:39.883Z,60.59
2022-10-11T02:09:39.884Z,58.97
2022-10-11T02:10:40.019Z,59.46
2022-10-11T02:11:39.870Z,59.46
2022-10-11T02:12:39.878Z,60.10
2022-10-11T02:13:39.880Z,56.07
2022-10-11T02:14:39.920Z,59.14
2022-10-11T02:15:39.878Z,60.42
2022-10-11T02:16:39.852Z,60.59
2022-10-11T02:17:40.862Z,60.42
2022-10-11T02:18:39.852Z,59.94
2022-10-11T02:19:39.824Z,62.04
2022-10-11T02:20:39.803Z,62.52
2022-10-11T02:21:39.791Z,63.16
2022-10-11T02:22:39.820Z,64.94
2022-10-11T02:23:39.803Z,61.07
2022-10-11T02:24:40.776Z,58.97
2022-10-11T02:25:39.768Z,57.69
2022-10-11T02:26:39.767Z,56.07
2022-10-11T02:27:39.759Z,57.85
2022-10-11T02:28:39.997Z,58.49
2022-10-11T02:29:39.741Z,59.78
2022-10-11T02:30:39.733Z,57.85
2022-10-11T02:31:40.581Z,58.01
2022-10-11T02:32:39.737Z,58.97
2022-10-11T02:33:39.712Z,58.33
2022-10-11T02:34:39.709Z,61.07
2022-10-11T02:35:39.700Z,60.59
2022-10-11T02:36:39.693Z,60.91
2022-10-11T02:37:39.701Z,61.55
2022-10-11T02:38:39.683Z,59.30
2022-10-11T02:39:39.676Z,57.36
2022-10-11T02:40:39.678Z,58.17
2022-10-11T02:41:39.671Z,59.14
2022-10-11T02:42:39.656Z,61.71
2022-10-11T02:43:39.664Z,57.36
2022-10-11T02:44:39.681Z,60.75
2022-10-11T02:45:39.644Z,59.46
2022-10-11T02:46:39.638Z,64.78
2022-10-11T02:47:39.629Z,61.55
2022-10-11T02:48:39.621Z,61.55
2022-10-11T02:49:39.629Z,65.10
2022-10-11T02:50:39.605Z,66.55
2022-10-11T02:51:39.601Z,62.84
2022-10-11T02:52:39.594Z,63.49
2022-10-11T02:53:39.583Z,66.55
2022-10-11T02:54:39.576Z,65.74
2022-10-11T02:55:39.580Z,63.65
2022-10-11T02:56:39.597Z,66.55
2022-10-11T02:57:39.556Z,68.00
2022-10-11T02:58:39.560Z,68.96
2022-10-11T02:59:39.539Z,63.97
2022-10-11T03:00:39.553Z,62.52
2022-10-11T03:01:39.660Z,63.49
2022-10-11T03:02:39.532Z,66.55
2022-10-11T03:03:39.516Z,65.26
2022-10-11T03:04:39.508Z,66.87
2022-10-11T03:05:39.505Z,64.61
2022-10-11T03:06:39.514Z,67.51
2022-10-11T03:07:39.498Z,64.94
2022-10-11T03:08:39.491Z,62.68
2022-10-11T03:09:39.480Z,69.45
2022-10-11T03:10:39.476Z,64.29
2022-10-11T03:11:40.186Z,64.29
2022-10-11T03:12:39.474Z,60.42
2022-10-11T03:13:39.450Z,57.85
2022-10-11T03:14:39.451Z,61.39
2022-10-11T03:15:39.447Z,59.30
2022-10-11T03:16:39.435Z,59.94
2022-10-11T03:17:39.447Z,60.59
2022-10-11T03:18:39.418Z,59.62
2022-10-11T03:19:39.410Z,59.62
2022-10-11T03:20:39.402Z,62.84
2022-10-11T03:21:39.407Z,61.07
2022-10-11T03:22:39.397Z,59.94
2022-10-11T03:23:39.398Z,59.30
2022-10-11T03:24:39.398Z,61.39
2022-10-11T03:25:39.372Z,61.07
2022-10-11T03:26:39.370Z,61.39
2022-10-11T03:27:39.377Z,63.65
2022-10-11T03:28:39.392Z,64.13
2022-10-11T03:29:39.385Z,64.61
2022-10-11T03:30:39.350Z,62.68
2022-10-11T03:31:39.343Z,62.52
2022-10-11T03:32:39.331Z,61.71
2022-10-11T03:33:39.328Z,62.52
2022-10-11T03:34:39.318Z,64.29
2022-10-11T03:35:39.334Z,66.55
2022-10-11T03:36:39.317Z,62.04
2022-10-11T03:37:39.297Z,63.33
2022-10-11T03:38:39.298Z,64.78
2022-10-11T03:39:39.285Z,66.06
2022-10-11T03:40:39.328Z,63.65
2022-10-11T03:41:39.281Z,64.61
2022-10-11T03:42:39.266Z,63.97
2022-10-11T03:43:39.274Z,63.97
2022-10-11T03:44:39.251Z,64.78
2022-10-11T03:45:39.251Z,63.97
2022-10-11T03:46:39.242Z,62.20
2022-10-11T03:47:39.238Z,60.75
2022-10-11T03:48:39.243Z,63.33
2022-10-11T03:49:43.398Z,62.52
2022-10-11T03:50:39.210Z,61.87
2022-10-11T03:51:39.250Z,64.78
2022-10-11T03:52:39.207Z,62.84
2022-10-11T03:53:39.194Z,63.00
2022-10-11T03:54:39.194Z,62.20
2022-10-11T03:55:39.176Z,62.20
2022-10-11T03:56:39.181Z,62.52
2022-10-11T03:57:39.170Z,61.87
2022-10-11T03:58:39.166Z,60.91
2022-10-11T03:59:39.182Z,63.00
2022-10-11T04:00:39.157Z,61.55
2022-10-11T04:01:39.168Z,62.36
2022-10-11T04:02:39.456Z,61.55
2022-10-11T04:03:40.126Z,61.87
2022-10-11T04:04:39.128Z,61.71
2022-10-11T04:05:39.142Z,62.68
2022-10-11T04:06:39.113Z,63.16
2022-10-11T04:07:39.111Z,64.29
2022-10-11T04:08:39.104Z,62.52
2022-10-11T04:09:39.087Z,62.20
2022-10-11T04:10:39.112Z,60.75
2022-10-11T04:11:39.089Z,62.84
2022-10-11T04:12:39.110Z,61.39
2022-10-11T04:13:39.078Z,63.33
2022-10-11T04:14:39.089Z,62.20
2022-10-11T04:15:39.067Z,60.59
2022-10-11T04:16:39.070Z,61.39
2022-10-11T04:17:39.040Z,58.49
2022-10-11T04:18:39.031Z,61.23
2022-10-11T04:19:39.043Z,61.23
2022-10-11T04:20:39.024Z,60.75
2022-10-11T04:21:39.020Z,63.16
2022-10-11T04:22:39.005Z,62.20
2022-10-11T04:23:39.016Z,61.87
2022-10-11T04:24:38.996Z,62.04
2022-10-11T04:25:38.983Z,62.68
2022-10-11T04:26:38.985Z,62.20
2022-10-11T04:27:38.981Z,61.39
2022-10-11T04:28:39.014Z,61.39
2022-10-11T04:29:38.960Z,67.35
2022-10-11T04:30:38.955Z,62.20
2022-10-11T04:31:39.019Z,62.68
2022-10-11T04:32:39.945Z,63.16
2022-10-11T04:33:38.941Z,69.29
2022-10-11T04:34:38.937Z,63.81
2022-10-11T04:35:38.944Z,64.29
2022-10-11T04:36:38.924Z,64.13
2022-10-11T04:37:38.920Z,63.65
2022-10-11T04:38:38.925Z,63.81
2022-10-11T04:39:38.908Z,65.26
2022-10-11T04:40:38.904Z,65.90
2022-10-11T04:41:38.887Z,65.58
2022-10-11T04:42:38.884Z,66.55
2022-10-11T04:43:38.880Z,65.26
2022-10-11T04:44:38.868Z,65.10
2022-10-11T04:45:38.897Z,65.74
2022-10-11T04:46:38.856Z,65.42
2022-10-11T04:47:38.852Z,66.23
2022-10-11T04:48:38.850Z,65.10
2022-10-11T04:49:38.840Z,69.61
2022-10-11T04:50:38.832Z,66.71
2022-10-11T04:51:38.840Z,64.94
2022-10-11T04:52:38.807Z,65.58
2022-10-11T04:53:38.808Z,65.42
2022-10-11T04:54:38.799Z,65.10
2022-10-11T04:55:38.799Z,64.94
2022-10-11T04:56:38.807Z,65.74
2022-10-11T04:57:38.783Z,64.94
2022-10-11T04:58:38.788Z,63.81
2022-10-11T04:59:38.777Z,64.45
2022-10-11T05:00:38.762Z,65.74
2022-10-11T05:01:38.785Z,63.81
2022-10-11T05:02:38.764Z,65.58
2022-10-11T05:03:38.739Z,64.45
2022-10-11T05:04:38.732Z,63.49
2022-10-11T05:05:38.730Z,63.33
2022-10-11T05:06:38.712Z,64.94
2022-10-11T05:07:38.728Z,65.42
2022-10-11T05:08:38.708Z,65.90
2022-10-11T05:09:38.692Z,68.16
2022-10-11T05:10:38.687Z,65.42
2022-10-11T05:11:38.687Z,65.42
2022-10-11T05:12:38.692Z,65.26
2022-10-11T05:13:38.676Z,64.61
2022-10-11T05:14:38.668Z,64.78
2022-10-11T05:15:38.655Z,63.65
2022-10-11T05:16:38.653Z,65.58
2022-10-11T05:17:38.659Z,64.29
2022-10-11T05:18:38.632Z,65.42
2022-10-11T05:19:38.644Z,65.26
2022-10-11T05:20:38.629Z,64.45
2022-10-11T05:21:38.611Z,66.06
2022-10-11T05:22:38.613Z,64.13
2022-10-11T05:23:38.609Z,64.78
2022-10-11T05:24:38.597Z,64.29
2022-10-11T05:25:38.590Z,64.13
2022-10-11T05:26:38.588Z,64.13
2022-10-11T05:27:38.579Z,62.68
2022-10-11T05:28:38.610Z,65.26
2022-10-11T05:29:38.572Z,67.84
2022-10-11T05:30:38.628Z,65.90
2022-10-11T05:31:38.556Z,64.13
2022-10-11T05:32:38.550Z,64.45
2022-10-11T05:33:38.539Z,64.29
2022-10-11T05:34:38.528Z,63.16
2022-10-11T05:35:38.537Z,63.97
2022-10-11T05:36:38.521Z,63.65
2022-10-11T05:37:38.527Z,63.97
2022-10-11T05:38:38.503Z,65.58
2022-10-11T05:39:38.499Z,66.23
2022-10-11T05:40:38.496Z,64.78
2022-10-11T05:41:38.494Z,64.78
2022-10-11T05:42:38.483Z,66.23
2022-10-11T05:43:38.475Z,66.71
2022-10-11T05:44:38.468Z,66.71
2022-10-11T05:45:38.454Z,67.03
2022-10-11T05:46:38.472Z,68.00
2022-10-11T05:47:38.448Z,69.45
2022-10-11T05:48:38.444Z,64.61
2022-10-11T05:49:38.436Z,64.45
2022-10-11T05:50:38.428Z,64.45
2022-10-11T05:51:38.440Z,65.74
2022-10-11T05:52:38.412Z,66.55
2022-10-11T05:53:38.402Z,66.39
2022-10-11T05:54:38.403Z,65.58
2022-10-11T05:55:38.396Z,65.42
2022-10-11T05:56:38.391Z,67.03
2022-10-11T05:57:38.384Z,65.90
2022-10-11T05:58:38.406Z,65.42
2022-10-11T05:59:38.367Z,63.33
2022-10-11T06:00:38.369Z,64.29
2022-10-11T06:01:38.477Z,67.03
2022-10-11T06:02:38.355Z,66.06
2022-10-11T06:03:38.352Z,68.00
2022-10-11T06:04:38.326Z,67.03
2022-10-11T06:05:38.334Z,64.29
2022-10-11T06:06:38.323Z,64.61
2022-10-11T06:07:38.324Z,65.42
2022-10-11T06:08:38.316Z,68.80
2022-10-11T06:09:38.319Z,66.87
2022-10-11T06:10:38.302Z,66.06
2022-10-11T06:11:38.295Z,64.61
2022-10-11T06:12:38.276Z,63.49
2022-10-11T06:13:38.282Z,65.58
2022-10-11T06:14:38.287Z,64.61
2022-10-11T06:15:38.267Z,64.29
2022-10-11T06:16:38.260Z,63.65
2022-10-11T06:17:38.255Z,64.78
2022-10-11T06:18:38.240Z,62.68
2022-10-11T06:19:38.235Z,63.49
2022-10-11T06:20:38.252Z,63.65
2022-10-11T06:21:38.221Z,63.81
2022-10-11T06:22:38.211Z,62.84
2022-10-11T06:23:38.212Z,64.13
2022-10-11T06:24:38.194Z,62.84
2022-10-11T06:25:38.211Z,64.13
2022-10-11T06:26:38.191Z,65.10
2022-10-11T06:27:38.178Z,65.10
2022-10-11T06:28:38.268Z,65.90
2022-10-11T06:29:38.188Z,63.33
2022-10-11T06:30:38.160Z,64.45
2022-10-11T06:31:38.171Z,63.16
2022-10-11T06:32:38.155Z,64.45
2022-10-11T06:33:38.154Z,65.90
2022-10-11T06:34:38.139Z,63.81
2022-10-11T06:35:38.136Z,65.74
2022-10-11T06:36:38.148Z,64.61
2022-10-11T06:37:38.132Z,62.52
2022-10-11T06:38:43.819Z,62.84
2022-10-11T06:39:40.191Z,65.26
2022-10-11T06:40:38.107Z,63.65
2022-10-11T06:41:38.096Z,61.87
2022-10-11T06:42:38.125Z,62.52
2022-10-11T06:43:38.080Z,63.65
2022-10-11T06:44:38.103Z,61.71
2022-10-11T06:45:38.069Z,60.59
2022-10-11T06:46:38.067Z,60.91
2022-10-11T06:47:38.131Z,62.20
2022-10-11T06:48:38.072Z,64.78
2022-10-11T06:49:38.038Z,61.71
2022-10-11T06:50:58.435Z,65.74
2022-10-11T06:51:40.030Z,63.00
2022-10-11T06:52:38.033Z,62.04
2022-10-11T06:53:38.033Z,62.04
2022-10-11T06:54:42.506Z,62.20
2022-10-11T06:55:40.000Z,61.87
2022-10-11T06:56:37.998Z,62.84
2022-10-11T06:57:37.984Z,63.16
2022-10-11T06:58:37.986Z,62.20
2022-10-11T06:59:37.974Z,60.75
2022-10-11T07:00:38.198Z,62.04
2022-10-11T07:01:38.059Z,60.42
2022-10-11T07:02:37.952Z,61.23
2022-10-11T07:03:37.963Z,62.04
2022-10-11T07:04:37.958Z,61.07
2022-10-11T07:05:37.950Z,62.04
2022-10-11T07:06:37.962Z,65.10
2022-10-11T07:07:37.921Z,62.20
2022-10-11T07:08:37.923Z,61.55
2022-10-11T07:09:37.906Z,61.87
2022-10-11T07:10:37.918Z,63.00
2022-10-11T07:11:37.900Z,63.49
2022-10-11T07:12:37.911Z,62.68
2022-10-11T07:13:37.902Z,64.45
2022-10-11T07:14:37.899Z,62.68
2022-10-11T07:15:37.888Z,61.87
2022-10-11T07:16:37.937Z,61.87
2022-10-11T07:17:37.874Z,61.71
2022-10-11T07:18:37.850Z,61.55
2022-10-11T07:19:37.861Z,61.07
2022-10-11T07:20:37.880Z,60.91
2022-10-11T07:21:37.862Z,62.84
2022-10-11T07:22:37.850Z,62.20
2022-10-11T07:23:37.855Z,62.20
2022-10-11T07:24:37.842Z,61.23
2022-10-11T07:25:37.867Z,60.10
2022-10-11T07:26:38.302Z,66.71
2022-10-11T07:27:38.791Z,61.87
2022-10-11T07:28:37.834Z,58.81
2022-10-11T07:29:37.819Z,61.71
2022-10-11T07:30:37.771Z,67.03
2022-10-11T07:31:37.758Z,61.07
2022-10-11T07:32:37.761Z,64.94
2022-10-11T07:33:37.739Z,60.59
2022-10-11T07:34:37.743Z,59.94
2022-10-11T07:35:37.736Z,59.78
2022-10-11T07:36:37.739Z,61.55
2022-10-11T07:37:37.715Z,59.30
2022-10-11T07:38:37.727Z,58.49
2022-10-11T07:39:37.701Z,58.17
2022-10-11T07:40:37.695Z,58.01
2022-10-11T07:41:41.811Z,57.20
2022-10-11T07:42:37.702Z,58.65
2022-10-11T07:43:37.678Z,62.04
2022-10-11T07:44:37.662Z,57.36
2022-10-11T07:45:37.651Z,57.69
2022-10-11T07:46:37.656Z,58.01
2022-10-11T07:47:37.659Z,58.01
2022-10-11T07:48:37.666Z,58.33
2022-10-11T07:49:37.642Z,56.72
2022-10-11T07:50:37.630Z,58.17
2022-10-11T07:51:37.622Z,60.10
2022-10-11T07:52:37.619Z,60.59
2022-10-11T07:53:37.606Z,57.69
2022-10-11T07:54:37.611Z,57.69
2022-10-11T07:55:37.587Z,59.14
2022-10-11T07:56:37.585Z,57.52
2022-10-11T07:57:37.578Z,56.72
2022-10-11T07:58:37.575Z,57.36
2022-10-11T07:59:37.563Z,58.49
2022-10-11T08:00:37.596Z,57.20
2022-10-11T08:01:37.604Z,58.33
2022-10-11T08:02:38.537Z,58.17
2022-10-11T08:03:37.540Z,57.85
2022-10-11T08:04:37.576Z,58.17
2022-10-11T08:05:37.532Z,60.10
2022-10-11T08:06:37.551Z,59.94
2022-10-11T08:07:37.522Z,58.33
2022-10-11T08:08:37.517Z,68.96
2022-10-11T08:09:37.503Z,60.10
2022-10-11T08:10:37.504Z,57.69
2022-10-11T08:11:37.479Z,57.20
2022-10-11T08:12:37.504Z,60.10
2022-10-11T08:13:37.487Z,59.30
2022-10-11T08:14:37.461Z,58.49
2022-10-11T08:15:37.460Z,64.61
2022-10-11T08:16:37.456Z,56.72
2022-10-11T08:17:37.480Z,59.46
2022-10-11T08:18:37.457Z,57.36
2022-10-11T08:19:37.432Z,56.56
2022-10-11T08:20:37.427Z,56.72
2022-10-11T08:21:37.425Z,56.72
2022-10-11T08:22:37.426Z,56.88
2022-10-11T08:23:37.414Z,57.85
2022-10-11T08:24:38.428Z,57.52
2022-10-11T08:25:38.389Z,58.33
2022-10-11T08:26:37.383Z,56.56
2022-10-11T08:27:37.386Z,56.88
2022-10-11T08:28:37.409Z,58.33
2022-10-11T08:29:37.365Z,55.27
2022-10-11T08:30:37.367Z,56.88
2022-10-11T08:31:37.370Z,64.94
2022-10-11T08:32:37.356Z,62.20
2022-10-11T08:33:37.337Z,60.26
2022-10-11T08:34:37.337Z,58.17
2022-10-11T08:35:37.318Z,57.36
2022-10-11T08:36:37.322Z,57.20
2022-10-11T08:37:37.318Z,58.49
2022-10-11T08:38:37.294Z,60.10
2022-10-11T08:39:37.294Z,56.88
2022-10-11T08:40:37.299Z,60.10
2022-10-11T08:41:37.333Z,59.62
2022-10-11T08:42:37.275Z,57.52
2022-10-11T08:43:37.267Z,57.85
2022-10-11T08:45:05.392Z,58.17
2022-10-11T08:45:39.264Z,58.33
2022-10-11T08:46:37.242Z,58.17
2022-10-11T08:47:37.268Z,61.07
2022-10-11T08:48:37.245Z,59.78
2022-10-11T08:49:37.252Z,59.46
2022-10-11T08:50:37.237Z,58.97
2022-10-11T08:51:37.224Z,59.30
2022-10-11T08:52:37.258Z,59.46
2022-10-11T08:53:37.217Z,60.42
2022-10-11T08:54:37.225Z,58.49
2022-10-11T08:55:37.184Z,59.14
2022-10-11T08:56:37.185Z,57.85
2022-10-11T08:57:37.180Z,57.52
2022-10-11T08:58:37.184Z,57.04
2022-10-11T08:59:37.185Z,58.97
2022-10-11T09:00:37.173Z,58.49
2022-10-11T09:01:37.379Z,59.62
2022-10-11T09:03:03.090Z,58.65
2022-10-11T09:03:39.198Z,57.04
2022-10-11T09:04:37.152Z,59.14
2022-10-11T09:05:37.133Z,58.01
2022-10-11T09:06:37.127Z,58.81
2022-10-11T09:07:37.198Z,57.69
2022-10-11T09:08:37.101Z,58.33
2022-10-11T09:09:38.104Z,59.14
2022-10-11T09:10:37.104Z,57.69
2022-10-11T09:11:37.082Z,59.46
2022-10-11T09:12:40.675Z,57.52
2022-10-11T09:13:38.060Z,55.59
2022-10-11T09:14:37.062Z,58.33
2022-10-11T09:15:37.053Z,59.94
2022-10-11T09:16:37.059Z,58.49
2022-10-11T09:17:37.068Z,58.17
2022-10-11T09:18:37.043Z,58.81
2022-10-11T09:19:37.036Z,57.85
2022-10-11T09:20:37.024Z,59.30
2022-10-11T09:21:37.019Z,61.87
2022-10-11T09:22:37.041Z,61.71
2022-10-11T09:23:37.035Z,58.65
2022-10-11T09:24:37.007Z,58.97
2022-10-11T09:25:36.988Z,58.81
2022-10-11T09:26:37.048Z,59.30
2022-10-11T09:28:01.116Z,58.49
2022-10-11T09:28:39.031Z,58.65
2022-10-11T09:29:36.964Z,57.20
2022-10-11T09:30:36.958Z,57.52
2022-10-11T09:31:36.965Z,59.94
2022-10-11T09:32:36.941Z,58.01
2022-10-11T09:33:36.960Z,58.17
2022-10-11T09:34:36.949Z,57.04
2022-10-11T09:35:36.964Z,58.81
2022-10-11T09:36:36.922Z,58.65
2022-10-11T09:37:36.925Z,59.62
2022-10-11T09:38:36.921Z,59.62
2022-10-11T09:39:36.907Z,56.88
2022-10-11T09:40:36.900Z,58.97
2022-10-11T09:41:36.884Z,58.49
2022-10-11T09:42:36.884Z,57.52
2022-10-11T09:43:36.888Z,58.65
2022-10-11T09:44:36.873Z,60.10
2022-10-11T09:45:36.864Z,57.36
2022-10-11T09:46:36.855Z,57.69
2022-10-11T09:47:36.852Z,60.59
2022-10-11T09:48:36.840Z,57.69
2022-10-11T09:49:36.843Z,59.62
2022-10-11T09:50:36.832Z,57.20
2022-10-11T09:51:36.813Z,69.13
2022-10-11T09:52:36.812Z,72.67
2022-10-11T09:53:36.820Z,75.25
2022-10-11T09:54:36.820Z,57.04
2022-10-11T09:55:36.798Z,59.14
2022-10-11T09:56:36.804Z,58.01
2022-10-11T09:57:36.792Z,57.04
2022-10-11T09:58:36.812Z,60.75
2022-10-11T09:59:36.791Z,60.59
2022-10-11T10:00:36.768Z,58.65
2022-10-11T10:01:36.797Z,62.52
2022-10-11T10:02:37.760Z,59.14
2022-10-11T10:03:36.771Z,68.96
2022-10-11T10:04:52.265Z,58.49
2022-10-11T10:05:37.751Z,55.43
2022-10-11T10:06:36.720Z,53.50
2022-10-11T10:07:36.741Z,54.30
2022-10-11T10:08:36.721Z,56.56
2022-10-11T10:09:36.708Z,54.62
2022-10-11T10:10:36.710Z,57.36
2022-10-11T10:11:36.698Z,57.36
2022-10-11T10:12:36.686Z,56.88
2022-10-11T10:13:36.681Z,57.04
2022-10-11T10:14:36.672Z,56.24
2022-10-11T10:15:36.684Z,57.69
2022-10-11T10:16:36.653Z,59.46
2022-10-11T10:17:36.650Z,56.56
2022-10-11T10:18:36.646Z,56.07
2022-10-11T10:19:38.924Z,54.46
2022-10-11T10:20:37.651Z,54.46
2022-10-11T10:21:36.627Z,63.97
2022-10-11T10:22:36.619Z,55.27
2022-10-11T10:23:36.619Z,54.95
2022-10-11T10:24:36.604Z,54.95
2022-10-11T10:25:40.845Z,54.95
2022-10-11T10:26:37.600Z,56.24
2022-10-11T10:27:36.589Z,57.36
2022-10-11T10:28:36.654Z,56.88
2022-10-11T10:29:36.603Z,56.24
2022-10-11T10:30:36.644Z,53.82
2022-10-11T10:31:54.961Z,54.62
2022-10-11T10:32:38.561Z,55.27
2022-10-11T10:33:36.551Z,52.05
2022-10-11T10:34:36.552Z,53.98
2022-10-11T10:35:36.567Z,52.53
2022-10-11T10:36:36.537Z,53.98
2022-10-11T10:37:36.538Z,58.33
2022-10-11T10:38:36.527Z,58.65
2022-10-11T10:39:36.531Z,58.81
2022-10-11T10:40:36.555Z,55.59
2022-10-11T10:41:36.519Z,56.88
2022-10-11T10:42:36.520Z,57.52
2022-10-11T10:43:36.519Z,57.36
2022-10-11T10:44:36.495Z,55.91
2022-10-11T10:45:36.500Z,60.42
2022-10-11T10:46:36.487Z,58.33
2022-10-11T10:47:36.463Z,58.01
2022-10-11T10:49:11.719Z,55.27
2022-10-11T10:49:54.979Z,54.62
2022-10-11T10:50:38.451Z,56.40
2022-10-11T10:51:36.486Z,55.27
2022-10-11T10:52:36.444Z,57.04
2022-10-11T10:53:36.437Z,57.04
2022-10-11T10:54:36.436Z,57.04
2022-10-11T10:55:36.564Z,55.91
2022-10-11T10:56:36.485Z,55.27
2022-10-11T10:57:36.417Z,54.46
2022-10-11T10:58:36.491Z,53.82
2022-10-11T10:59:36.403Z,54.79
2022-10-11T11:00:36.409Z,52.21
2022-10-11T11:01:36.451Z,55.75
2022-10-11T11:02:40.869Z,55.91
2022-10-11T11:03:38.397Z,56.56
2022-10-11T11:04:36.379Z,55.11
2022-10-11T11:05:36.404Z,55.11
2022-10-11T11:06:36.748Z,55.91
2022-10-11T11:07:36.415Z,54.79
2022-10-11T11:08:36.359Z,55.43
2022-10-11T11:09:36.367Z,55.75
2022-10-11T11:10:36.376Z,55.27
2022-10-11T11:11:36.381Z,57.36
2022-10-11T11:12:36.359Z,58.01
2022-10-11T11:13:36.328Z,59.46
2022-10-11T11:14:36.328Z,56.72
2022-10-11T11:15:38.158Z,56.56
2022-10-11T11:16:37.345Z,55.75
2022-10-11T11:17:36.308Z,53.17
2022-10-11T11:18:36.308Z,56.07
2022-10-11T11:19:36.324Z,54.79
2022-10-11T11:20:36.291Z,56.40
2022-10-11T11:21:41.248Z,54.95
2022-10-11T11:22:38.281Z,55.27
2022-10-11T11:23:36.311Z,56.24
2022-10-11T11:24:36.259Z,56.88
2022-10-11T11:25:36.283Z,55.43
2022-10-11T11:26:37.810Z,56.24
2022-10-11T11:27:36.248Z,55.75
2022-10-11T11:28:36.296Z,54.95
2022-10-11T11:29:36.307Z,57.20
2022-10-11T11:30:36.241Z,56.07
2022-10-11T11:31:36.248Z,57.04
2022-10-11T11:32:36.232Z,57.04
2022-10-11T11:33:36.230Z,53.82
2022-10-11T11:34:36.205Z,55.27
2022-10-11T11:35:36.202Z,56.40
2022-10-11T11:36:36.208Z,56.40
2022-10-11T11:37:36.193Z,56.07
2022-10-11T11:38:36.204Z,55.43
2022-10-11T11:39:36.248Z,53.98
2022-10-11T11:40:36.220Z,55.27
2022-10-11T11:41:36.220Z,55.91
2022-10-11T11:42:36.172Z,56.56
2022-10-11T11:43:36.194Z,58.17
2022-10-11T11:44:36.165Z,56.40
2022-10-11T11:45:36.178Z,53.33
2022-10-11T11:46:36.244Z,58.81
2022-10-11T11:47:36.128Z,53.66
2022-10-11T11:48:36.127Z,53.66
2022-10-11T11:49:36.187Z,54.46
2022-10-11T11:50:37.149Z,54.30
2022-10-11T11:51:36.781Z,55.43
2022-10-11T11:52:36.152Z,53.66
2022-10-11T11:53:36.116Z,55.75
2022-10-11T11:54:36.244Z,57.04
2022-10-11T11:55:36.126Z,54.79
2022-10-11T11:56:36.100Z,53.82
2022-10-11T11:57:36.137Z,56.24
2022-10-11T11:58:36.097Z,54.62
2022-10-11T11:59:36.104Z,52.53
2022-10-11T12:00:36.097Z,52.69
2022-10-11T12:01:36.129Z,55.75
2022-10-11T12:02:36.047Z,58.33
2022-10-11T12:03:41.279Z,54.14
2022-10-11T12:04:38.052Z,54.79
2022-10-11T12:05:36.096Z,54.79
2022-10-11T12:06:40.317Z,54.30
2022-10-11T12:07:38.026Z,53.33
2022-10-11T12:08:36.059Z,54.62
2022-10-11T12:09:36.036Z,56.72
2022-10-11T12:10:36.038Z,56.56
2022-10-11T12:11:36.001Z,57.52
2022-10-11T12:12:35.997Z,56.40
2022-10-11T12:13:36.000Z,54.79
2022-10-11T12:14:36.000Z,62.04
2022-10-11T12:15:35.968Z,56.24
2022-10-11T12:16:35.972Z,56.07
2022-10-11T12:17:35.971Z,53.98
2022-10-11T12:18:39.350Z,55.11
2022-10-11T12:19:37.978Z,52.21
2022-10-11T12:20:35.967Z,53.33
2022-10-11T12:21:35.988Z,57.04
2022-10-11T12:22:35.945Z,53.17
2022-10-11T12:23:35.940Z,53.98
2022-10-11T12:24:35.932Z,51.40
2022-10-11T12:25:35.929Z,51.56
2022-10-11T12:26:35.929Z,60.10
2022-10-11T12:27:35.937Z,51.72
2022-10-11T12:28:35.976Z,61.07
2022-10-11T12:29:35.923Z,57.36
2022-10-11T12:30:36.219Z,67.35
2022-10-11T12:31:35.915Z,58.65
2022-10-11T12:32:35.897Z,59.94
2022-10-11T12:33:35.892Z,61.07
2022-10-11T12:34:37.367Z,59.14
2022-10-11T12:35:35.887Z,57.69
2022-10-11T12:36:35.876Z,58.33
2022-10-11T12:37:35.876Z,63.16
2022-10-11T12:38:35.868Z,59.78
2022-10-11T12:39:35.888Z,52.53
2022-10-11T12:40:35.891Z,59.78
2022-10-11T12:41:35.847Z,59.46
2022-10-11T12:42:35.859Z,58.97
2022-10-11T12:43:35.835Z,60.42
2022-10-11T12:44:35.841Z,60.26
2022-10-11T12:45:35.883Z,63.00
2022-10-11T12:46:35.825Z,61.23
2022-10-11T12:47:35.827Z,61.87
2022-10-11T12:48:40.636Z,62.84
2022-10-11T12:49:37.807Z,62.04
2022-10-11T12:50:35.817Z,58.17
2022-10-11T12:51:35.803Z,53.50
2022-10-11T12:52:35.843Z,53.66